createdAt,value
2017-09-12T00:01:49.108Z,96091.45
2017-09-12T00:04:16.527Z,96091.30
2017-09-12T00:06:44.084Z,96088.70
2017-09-12T00:09:11.524Z,96086.39
2017-09-12T00:11:38.974Z,96079.79
2017-09-12T00:14:06.451Z,96081.58
2017-09-12T00:16:33.888Z,96085.69
2017-09-12T00:19:01.338Z,96083.19
2017-09-12T00:21:28.775Z,96083.33
2017-09-12T00:23:56.237Z,96085.64
2017-09-12T00:26:23.665Z,96075.25
2017-09-12T00:28:51.138Z,96081.02
2017-09-12T00:31:18.563Z,96081.44
2017-09-12T00:33:45.987Z,96080.30
2017-09-12T00:36:13.461Z,96086.86
2017-09-12T00:38:41.017Z,96091.67
2017-09-12T00:41:08.461Z,96094.56
2017-09-12T00:43:35.893Z,96087.95
2017-09-12T00:46:03.297Z,96092.73
2017-09-12T00:48:30.715Z,96087.95
2017-09-12T00:50:58.164Z,96085.36
2017-09-12T00:53:26.726Z,96084.13
2017-09-12T00:55:54.140Z,96084.94
2017-09-12T00:58:21.594Z,96077.56
2017-09-12T01:00:49.178Z,96080.83
2017-09-12T01:03:16.720Z,96075.50
2017-09-12T01:05:44.172Z,96072.76
2017-09-12T01:08:11.678Z,96068.37
2017-09-12T01:10:39.116Z,96064.69
2017-09-12T01:13:06.611Z,96063.84
2017-09-12T01:15:34.044Z,96063.31
2017-09-12T01:18:01.472Z,96070.45
2017-09-12T01:20:28.913Z,96078.09
2017-09-12T01:22:56.367Z,96073.28
2017-09-12T01:25:23.826Z,96074.66
2017-09-12T01:27:51.269Z,96071.34
2017-09-12T01:30:18.689Z,96073.56
2017-09-12T01:32:46.107Z,96072.72
2017-09-12T01:35:13.533Z,96073.84
2017-09-12T01:37:40.957Z,96075.73
2017-09-12T01:40:08.445Z,96078.33
2017-09-12T01:42:35.895Z,96077.77
2017-09-12T01:45:03.323Z,96088.19
2017-09-12T01:47:30.761Z,96090.50
2017-09-12T01:49:58.213Z,96089.56
2017-09-12T01:52:25.675Z,96094.48
2017-09-12T01:54:53.064Z,96094.61
2017-09-12T01:57:20.527Z,96092.83
2017-09-12T01:59:47.957Z,96094.85
2017-09-12T02:02:15.370Z,96095.41
2017-09-12T02:04:42.808Z,96099.52
2017-09-12T02:07:10.308Z,96096.36
2017-09-12T02:09:37.739Z,96089.09
2017-09-12T02:12:05.198Z,96089.38
2017-09-12T02:14:32.625Z,96089.80
2017-09-12T02:17:00.045Z,96085.55
2017-09-12T02:19:27.497Z,96081.59
2017-09-12T02:21:54.951Z,96074.05
2017-09-12T02:24:22.761Z,96080.75
2017-09-12T02:26:50.347Z,96091.17
2017-09-12T02:29:17.785Z,96093.06
2017-09-12T02:31:45.241Z,96086.78
2017-09-12T02:34:12.715Z,96093.63
2017-09-12T02:36:40.147Z,96097.73
2017-09-12T02:39:07.621Z,96108.44
2017-09-12T02:41:35.188Z,96112.36
2017-09-12T02:44:02.683Z,96110.18
2017-09-12T02:46:30.100Z,96106.89
2017-09-12T02:48:57.528Z,96104.43
2017-09-12T02:51:25.046Z,96102.64
2017-09-12T02:53:52.492Z,96105.23
2017-09-12T02:56:19.988Z,96109.76
2017-09-12T02:58:47.416Z,96113.16
2017-09-12T03:01:14.854Z,96116.70
2017-09-12T03:03:42.302Z,96116.31
2017-09-12T03:06:09.736Z,96118.73
2017-09-12T03:08:37.166Z,96115.89
2017-09-12T03:11:04.601Z,96120.00
2017-09-12T03:13:32.017Z,96126.84
2017-09-12T03:15:59.448Z,96128.21
2017-09-12T03:18:26.968Z,96134.63
2017-09-12T03:20:54.463Z,96132.31
2017-09-12T03:23:21.890Z,96137.08
2017-09-12T03:25:49.341Z,96150.77
2017-09-12T03:28:16.751Z,96155.16
2017-09-12T03:30:44.193Z,96162.00
2017-09-12T03:33:11.619Z,96162.42
2017-09-12T03:35:39.042Z,96164.73
2017-09-12T03:38:06.467Z,96168.42
2017-09-12T03:40:33.948Z,96166.95
2017-09-12T03:43:01.372Z,96169.78
2017-09-12T03:45:28.816Z,96173.36
2017-09-12T03:47:56.394Z,96164.45
2017-09-12T03:50:23.878Z,96168.55
2017-09-12T03:52:51.294Z,96169.50
2017-09-12T03:55:18.745Z,96157.19
2017-09-12T03:57:46.166Z,96153.08
2017-09-12T04:00:13.606Z,96154.83
2017-09-12T04:02:41.045Z,96151.14
2017-09-12T04:05:08.475Z,96157.56
2017-09-12T04:07:35.906Z,96162.75
2017-09-12T04:10:03.394Z,96180.53
2017-09-12T04:12:30.822Z,96174.64
2017-09-12T04:14:58.273Z,96171.77
2017-09-12T04:17:25.721Z,96179.03
2017-09-12T04:19:53.153Z,96180.95
2017-09-12T04:22:20.563Z,96182.33
2017-09-12T04:24:48.023Z,96179.59
2017-09-12T04:27:15.476Z,96189.03
2017-09-12T04:29:42.937Z,96187.81
2017-09-12T04:32:10.461Z,96189.18
2017-09-12T04:34:37.872Z,96189.66
2017-09-12T04:37:05.296Z,96189.94
2017-09-12T04:39:32.754Z,96189.13
2017-09-12T04:42:00.189Z,96183.09
2017-09-12T04:44:27.629Z,96183.52
2017-09-12T04:46:55.100Z,96193.94
2017-09-12T04:49:22.531Z,96200.13
2017-09-12T04:51:49.972Z,96199.70
2017-09-12T04:54:17.400Z,96207.77
2017-09-12T04:56:44.815Z,96208.33
2017-09-12T04:59:12.373Z,96208.62
2017-09-12T05:01:39.808Z,96212.67
2017-09-12T05:04:07.380Z,96209.94
2017-09-12T05:06:34.852Z,96203.09
2017-09-12T05:09:02.291Z,96202.16
2017-09-12T05:11:29.707Z,96209.70
2017-09-12T05:13:57.139Z,96214.20
2017-09-12T05:16:24.603Z,96209.38
2017-09-12T05:18:52.021Z,96209.70
2017-09-12T05:21:19.466Z,96206.64
2017-09-12T05:23:46.961Z,96211.83
2017-09-12T05:26:14.393Z,96220.18
2017-09-12T05:28:41.847Z,96216.36
2017-09-12T05:31:09.534Z,96224.86
2017-09-12T05:33:36.963Z,96222.26
2017-09-12T05:36:05.271Z,96228.25
2017-09-12T05:38:32.720Z,96230.28
2017-09-12T05:41:00.124Z,96232.36
2017-09-12T05:43:27.625Z,96238.83
2017-09-12T05:45:55.321Z,96235.98
2017-09-12T05:48:22.731Z,96244.20
2017-09-12T05:50:50.153Z,96240.52
2017-09-12T05:53:17.627Z,96243.36
2017-09-12T05:55:45.040Z,96244.96
2017-09-12T05:58:12.576Z,96247.78
2017-09-12T06:00:40.019Z,96251.66
2017-09-12T06:03:07.435Z,96253.02
2017-09-12T06:05:34.854Z,96253.26
2017-09-12T06:08:02.419Z,96258.30
2017-09-12T06:10:29.867Z,96254.58
2017-09-12T06:12:57.285Z,96260.05
2017-09-12T06:15:24.747Z,96258.69
2017-09-12T06:17:52.227Z,96268.97
2017-09-12T06:20:19.648Z,96271.27
2017-09-12T06:22:47.165Z,96263.77
2017-09-12T06:25:14.595Z,96268.68
2017-09-12T06:27:42.103Z,96267.55
2017-09-12T06:30:09.566Z,96274.81
2017-09-12T06:32:36.992Z,96277.97
2017-09-12T06:35:04.595Z,96283.58
2017-09-12T06:37:32.052Z,96280.42
2017-09-12T06:39:59.469Z,96281.80
2017-09-12T06:42:26.902Z,96287.37
2017-09-12T06:44:54.360Z,96288.34
2017-09-12T06:47:21.786Z,96285.47
2017-09-12T06:49:49.238Z,96293.16
2017-09-12T06:52:16.694Z,96301.05
2017-09-12T06:54:44.107Z,96294.34
2017-09-12T06:57:11.545Z,96301.61
2017-09-12T06:59:38.999Z,96311.47
2017-09-12T07:02:06.423Z,96308.31
2017-09-12T07:04:33.846Z,96308.45
2017-09-12T07:07:01.322Z,96311.47
2017-09-12T07:09:28.741Z,96307.89
2017-09-12T07:11:56.178Z,96314.63
2017-09-12T07:14:23.630Z,96315.58
2017-09-12T07:16:51.054Z,96318.84
2017-09-12T07:19:18.497Z,96314.34
2017-09-12T07:21:45.943Z,96317.37
2017-09-12T07:24:13.360Z,96314.20
2017-09-12T07:26:40.778Z,96320.11
2017-09-12T07:29:08.232Z,96323.92
2017-09-12T07:31:35.648Z,96320.77
2017-09-12T07:34:03.156Z,96322.55
2017-09-12T07:36:30.592Z,96328.03
2017-09-12T07:38:58.039Z,96327.47
2017-09-12T07:41:25.530Z,96325.29
2017-09-12T07:43:52.983Z,96332.84
2017-09-12T07:46:20.408Z,96337.99
2017-09-12T07:48:47.835Z,96344.45
2017-09-12T07:51:15.283Z,96344.84
2017-09-12T07:53:42.700Z,96345.91
2017-09-12T07:56:10.120Z,96345.81
2017-09-12T07:58:37.719Z,96348.94
2017-09-12T08:01:05.142Z,96352.66
2017-09-12T08:03:32.569Z,96358.52
2017-09-12T08:06:00.005Z,96366.86
2017-09-12T08:08:27.425Z,96370.02
2017-09-12T08:10:54.848Z,96370.16
2017-09-12T08:13:22.335Z,96369.73
2017-09-12T08:15:49.751Z,96372.91
2017-09-12T08:18:17.187Z,96378.39
2017-09-12T08:20:44.651Z,96373.23
2017-09-12T08:23:12.088Z,96382.81
2017-09-12T08:25:39.520Z,96377.08
2017-09-12T08:28:07.028Z,96376.12
2017-09-12T08:30:34.445Z,96375.19
2017-09-12T08:33:01.864Z,96385.50
2017-09-12T08:35:29.348Z,96385.55
2017-09-12T08:37:56.902Z,96375.61
2017-09-12T08:40:24.329Z,96390.53
2017-09-12T08:42:51.805Z,96384.20
2017-09-12T08:45:19.238Z,96386.28
2017-09-12T08:47:46.657Z,96383.55
2017-09-12T08:50:14.174Z,96380.42
2017-09-12T08:52:41.587Z,96388.97
2017-09-12T08:55:09.051Z,96391.84
2017-09-12T08:57:36.526Z,96394.05
2017-09-12T09:00:03.944Z,96394.44
2017-09-12T09:02:31.545Z,96392.27
2017-09-12T09:04:58.987Z,96406.17
2017-09-12T09:07:26.440Z,96403.73
2017-09-12T09:09:53.858Z,96408.91
2017-09-12T09:12:21.304Z,96410.84
2017-09-12T09:14:48.747Z,96412.55
2017-09-12T09:17:16.170Z,96416.34
2017-09-12T09:19:43.602Z,96419.92
2017-09-12T09:22:11.024Z,96412.00
2017-09-12T09:24:38.461Z,96425.26
2017-09-12T09:27:05.883Z,96421.16
2017-09-12T09:29:33.495Z,96427.89
2017-09-12T09:32:00.912Z,96430.21
2017-09-12T09:34:28.367Z,96433.47
2017-09-12T09:36:55.772Z,96440.21
2017-09-12T09:39:23.193Z,96445.79
2017-09-12T09:41:50.627Z,96451.16
2017-09-12T09:44:18.168Z,96449.14
2017-09-12T09:46:45.627Z,96454.48
2017-09-12T09:49:13.091Z,96455.03
2017-09-12T09:51:40.507Z,96462.69
2017-09-12T09:54:07.959Z,96452.16
2017-09-12T09:56:35.398Z,96461.03
2017-09-12T09:59:02.835Z,96464.48
2017-09-12T10:01:30.256Z,96472.83
2017-09-12T10:03:57.712Z,96479.53
2017-09-12T10:06:25.132Z,96483.70
2017-09-12T10:08:52.564Z,96478.28
2017-09-12T10:11:20.036Z,96482.68
2017-09-12T10:13:47.485Z,96483.20
2017-09-12T10:16:14.929Z,96475.28
2017-09-12T10:18:42.380Z,96478.28
2017-09-12T10:21:09.904Z,96475.84
2017-09-12T10:23:37.322Z,96475.70
2017-09-12T10:26:05.814Z,96481.25
2017-09-12T10:28:33.288Z,96482.48
2017-09-12T10:31:00.895Z,96490.60
2017-09-12T10:33:28.353Z,96489.75
2017-09-12T10:35:55.773Z,96489.33
2017-09-12T10:38:23.210Z,96490.17
2017-09-12T10:40:50.657Z,96489.47
2017-09-12T10:43:18.150Z,96483.86
2017-09-12T10:45:45.679Z,96475.13
2017-09-12T10:48:13.134Z,96472.39
2017-09-12T10:50:40.563Z,96474.56
2017-09-12T10:53:08.085Z,96468.70
2017-09-12T10:55:36.362Z,96463.62
2017-09-12T10:58:03.797Z,96459.13
2017-09-12T11:00:31.331Z,96463.09
2017-09-12T11:02:58.786Z,96462.38
2017-09-12T11:05:26.212Z,96468.41
2017-09-12T11:07:53.629Z,96457.98
2017-09-12T11:10:21.074Z,96463.75
2017-09-12T11:12:48.516Z,96462.67
2017-09-12T11:15:15.934Z,96462.67
2017-09-12T11:17:43.384Z,96467.20
2017-09-12T11:20:10.805Z,96462.97
2017-09-12T11:22:38.233Z,96472.25
2017-09-12T11:25:05.687Z,96471.83
2017-09-12T11:27:33.148Z,96471.83
2017-09-12T11:30:00.584Z,96483.34
2017-09-12T11:32:28.060Z,96481.77
2017-09-12T11:34:55.478Z,96497.25
2017-09-12T11:37:22.900Z,96509.28
2017-09-12T11:39:50.341Z,96531.18
2017-09-12T11:42:17.788Z,96544.86
2017-09-12T11:44:45.195Z,96545.39
2017-09-12T11:47:12.657Z,96558.42
2017-09-12T11:49:40.076Z,96556.34
2017-09-12T11:52:07.493Z,96566.34
2017-09-12T11:54:34.974Z,96563.31
2017-09-12T11:57:03.359Z,96549.75
2017-09-12T11:59:30.929Z,96556.05
2017-09-12T12:01:58.373Z,96556.47
2017-09-12T12:04:26.362Z,96561.42
2017-09-12T12:06:53.795Z,96563.18
2017-09-12T12:09:21.239Z,96564.45
2017-09-12T12:11:48.661Z,96560.44
2017-09-12T12:14:16.084Z,96569.37
2017-09-12T12:16:43.594Z,96558.13
2017-09-12T12:19:11.036Z,96571.00
2017-09-12T12:21:38.456Z,96561.09
2017-09-12T12:24:05.960Z,96562.23
2017-09-12T12:26:33.373Z,96568.66
2017-09-12T12:29:00.816Z,96566.77
2017-09-12T12:31:28.293Z,96573.38
2017-09-12T12:33:55.746Z,96567.61
2017-09-12T12:36:23.158Z,96576.77
2017-09-12T12:38:50.659Z,96573.38
2017-09-12T12:41:18.103Z,96571.45
2017-09-12T12:43:45.530Z,96563.23
2017-09-12T12:46:13.005Z,96568.20
2017-09-12T12:48:40.430Z,96565.45
2017-09-12T12:51:08.378Z,96561.77
2017-09-12T12:53:35.864Z,96569.01
2017-09-12T12:56:03.295Z,96569.98
2017-09-12T12:58:30.728Z,96561.06
2017-09-12T13:00:58.296Z,96567.48
2017-09-12T13:03:25.713Z,96570.73
2017-09-12T13:05:53.137Z,96565.39
2017-09-12T13:08:20.595Z,96567.28
2017-09-12T13:10:48.024Z,96575.11
2017-09-12T13:13:15.437Z,96577.71
2017-09-12T13:15:42.929Z,96572.95
2017-09-12T13:18:10.370Z,96583.61
2017-09-12T13:20:37.822Z,96585.08
2017-09-12T13:23:05.301Z,96592.89
2017-09-12T13:25:32.728Z,96605.61
2017-09-12T13:28:00.156Z,96613.23
2017-09-12T13:30:27.599Z,96607.53
2017-09-12T13:32:55.046Z,96611.64
2017-09-12T13:35:22.450Z,96614.60
2017-09-12T13:37:49.970Z,96626.27
2017-09-12T13:40:17.395Z,96629.52
2017-09-12T13:42:45.625Z,96625.68
2017-09-12T13:45:13.106Z,96629.42
2017-09-12T13:47:40.525Z,96632.69
2017-09-12T13:50:07.954Z,96634.91
2017-09-12T13:52:35.411Z,96635.33
2017-09-12T13:55:02.850Z,96636.27
2017-09-12T13:57:30.315Z,96629.13
2017-09-12T13:59:57.740Z,96632.27
2017-09-12T14:02:25.148Z,96634.19
2017-09-12T14:04:52.583Z,96635.98
2017-09-12T14:07:20.034Z,96634.48
2017-09-12T14:09:47.460Z,96639.53
2017-09-12T14:12:14.904Z,96638.29
2017-09-12T14:14:42.463Z,96639.07
2017-09-12T14:17:09.884Z,96643.18
2017-09-12T14:19:37.317Z,96640.02
2017-09-12T14:22:05.293Z,96649.17
2017-09-12T14:24:32.728Z,96647.67
2017-09-12T14:27:00.173Z,96649.59
2017-09-12T14:29:27.977Z,96649.47
2017-09-12T14:31:55.582Z,96652.11
2017-09-12T14:34:23.110Z,96647.16
2017-09-12T14:36:50.619Z,96649.76
2017-09-12T14:39:18.143Z,96648.00
2017-09-12T14:41:45.560Z,96653.48
2017-09-12T14:44:13.000Z,96653.05
2017-09-12T14:46:40.423Z,96647.45
2017-09-12T14:49:07.853Z,96647.87
2017-09-12T14:51:35.305Z,96644.94
2017-09-12T14:54:02.727Z,96652.76
2017-09-12T14:56:30.164Z,96650.54
2017-09-12T14:58:57.593Z,96641.81
2017-09-12T15:01:25.028Z,96648.00
2017-09-12T15:03:52.451Z,96652.86
2017-09-12T15:06:19.917Z,96642.56
2017-09-12T15:08:47.350Z,96648.52
2017-09-12T15:11:14.800Z,96650.12
2017-09-12T15:13:42.313Z,96653.28
2017-09-12T15:16:09.724Z,96646.38
2017-09-12T15:18:37.166Z,96650.90
2017-09-12T15:21:04.623Z,96653.64
2017-09-12T15:23:32.039Z,96658.17
2017-09-12T15:25:59.451Z,96663.09
2017-09-12T15:28:26.919Z,96664.59
2017-09-12T15:30:54.338Z,96663.22
2017-09-12T15:33:21.784Z,96666.91
2017-09-12T15:35:49.256Z,96671.86
2017-09-12T15:38:16.685Z,96676.77
2017-09-12T15:40:44.099Z,96685.41
2017-09-12T15:43:11.515Z,96687.20
2017-09-12T15:45:38.936Z,96689.52
2017-09-12T15:48:06.410Z,96683.63
2017-09-12T15:50:33.968Z,96686.06
2017-09-12T15:53:01.408Z,96685.05
2017-09-12T15:55:28.857Z,96694.34
2017-09-12T15:57:56.314Z,96687.27
2017-09-12T16:00:23.747Z,96689.35
2017-09-12T16:02:51.172Z,96701.25
2017-09-12T16:05:18.706Z,96695.77
2017-09-12T16:07:46.164Z,96697.92
2017-09-12T16:10:13.586Z,96699.45
2017-09-12T16:12:41.063Z,96698.94
2017-09-12T16:15:08.512Z,96704.28
2017-09-12T16:17:35.961Z,96702.32
2017-09-12T16:20:03.436Z,96705.80
2017-09-12T16:22:30.922Z,96704.44
2017-09-12T16:24:58.789Z,96707.59
2017-09-12T16:27:26.243Z,96708.55
2017-09-12T16:29:53.651Z,96710.63
2017-09-12T16:32:21.091Z,96708.87
2017-09-12T16:34:48.554Z,96708.02
2017-09-12T16:37:16.130Z,96718.03
2017-09-12T16:39:43.689Z,96716.53
2017-09-12T16:42:11.170Z,96721.65
2017-09-12T16:44:38.593Z,96729.57
2017-09-12T16:47:06.019Z,96737.20
2017-09-12T16:49:33.466Z,96741.08
2017-09-12T16:52:00.940Z,96748.74
2017-09-12T16:54:28.367Z,96757.88
2017-09-12T16:56:55.860Z,96770.91
2017-09-12T16:59:23.373Z,96772.38
2017-09-12T17:01:50.806Z,96770.42
2017-09-12T17:04:18.314Z,96767.81
2017-09-12T17:06:45.801Z,96771.50
2017-09-12T17:09:13.309Z,96765.72
2017-09-12T17:11:40.827Z,96768.45
2017-09-12T17:14:08.528Z,96770.05
2017-09-12T17:16:36.041Z,96770.70
2017-09-12T17:19:03.565Z,96782.80
2017-09-12T17:21:31.062Z,96787.13
2017-09-12T17:23:58.642Z,96791.95
2017-09-12T17:26:26.172Z,96797.73
2017-09-12T17:28:53.693Z,96795.55
2017-09-12T17:31:21.222Z,96797.66
2017-09-12T17:33:48.767Z,96794.20
2017-09-12T17:36:16.638Z,96793.91
2017-09-12T17:38:44.192Z,96790.88
2017-09-12T17:41:12.037Z,96792.02
2017-09-12T17:43:39.795Z,96784.23
2017-09-12T17:46:08.109Z,96789.80
2017-09-12T17:48:36.078Z,96793.16
2017-09-12T17:51:03.936Z,96799.03
2017-09-12T17:53:31.918Z,96805.05
2017-09-12T17:56:00.495Z,96803.26
2017-09-12T17:58:28.352Z,96807.23
2017-09-12T18:00:56.015Z,96809.38
2017-09-12T18:03:23.625Z,96815.28
2017-09-12T18:05:51.144Z,96828.25
2017-09-12T18:08:19.003Z,96826.75
2017-09-12T18:10:46.617Z,96832.06
2017-09-12T18:13:14.217Z,96837.23
2017-09-12T18:15:41.724Z,96833.73
2017-09-12T18:18:09.270Z,96839.08
2017-09-12T18:20:36.861Z,96844.55
2017-09-12T18:23:04.451Z,96852.59
2017-09-12T18:25:31.972Z,96856.80
2017-09-12T18:27:59.605Z,96861.75
2017-09-12T18:30:27.106Z,96867.23
2017-09-12T18:32:54.603Z,96873.55
2017-09-12T18:35:22.607Z,96884.08
2017-09-12T18:37:50.205Z,96890.92
2017-09-12T18:40:17.727Z,96897.77
2017-09-12T18:42:45.335Z,96904.31
2017-09-12T18:45:12.909Z,96907.86
2017-09-12T18:47:40.448Z,96914.28
2017-09-12T18:50:07.957Z,96917.58
2017-09-12T18:52:35.519Z,96917.14
2017-09-12T18:55:03.066Z,96922.63
2017-09-12T18:57:30.565Z,96924.41
2017-09-12T18:59:58.072Z,96920.41
2017-09-12T19:02:25.600Z,96926.73
2017-09-12T19:04:53.092Z,96931.78
2017-09-12T19:07:20.584Z,96928.52
2017-09-12T19:09:48.115Z,96928.31
2017-09-12T19:12:15.616Z,96932.55
2017-09-12T19:14:43.130Z,96938.03
2017-09-12T19:17:11.623Z,96934.73
2017-09-12T19:19:39.140Z,96940.47
2017-09-12T19:22:06.686Z,96952.23
2017-09-12T19:24:34.216Z,96950.98
2017-09-12T19:27:01.702Z,96954.67
2017-09-12T19:29:29.306Z,96955.62
2017-09-12T19:31:56.855Z,96959.05
2017-09-12T19:34:24.357Z,96962.08
2017-09-12T19:36:51.859Z,96965.32
2017-09-12T19:39:19.409Z,96982.27
2017-09-12T19:41:46.906Z,96984.06
2017-09-12T19:44:14.420Z,96981.15
2017-09-12T19:46:42.174Z,96978.80
2017-09-12T19:49:09.732Z,96984.19
2017-09-12T19:51:37.256Z,96980.17
2017-09-12T19:54:05.768Z,96984.28
2017-09-12T19:56:33.270Z,96985.77
2017-09-12T19:59:00.769Z,96982.09
2017-09-12T20:01:28.298Z,96982.61
2017-09-12T20:03:55.814Z,96989.87
2017-09-12T20:06:23.341Z,96983.16
2017-09-12T20:08:50.899Z,96985.59
2017-09-12T20:11:18.379Z,96988.64
2017-09-12T20:13:45.937Z,96995.57
2017-09-12T20:16:13.453Z,96987.36
2017-09-12T20:18:40.957Z,96986.55
2017-09-12T20:21:08.474Z,96985.59
2017-09-12T20:23:36.175Z,96993.81
2017-09-12T20:26:03.667Z,97003.19
2017-09-12T20:28:31.149Z,96998.27
2017-09-12T20:30:58.702Z,97005.50
2017-09-12T20:33:26.245Z,97000.75
2017-09-12T20:35:53.766Z,96995.92
2017-09-12T20:38:21.423Z,97004.55
2017-09-12T20:40:48.954Z,96994.55
2017-09-12T20:43:16.447Z,96995.83
2017-09-12T20:45:43.983Z,96997.28
2017-09-12T20:48:11.484Z,96990.27
2017-09-12T20:50:38.996Z,96994.80
2017-09-12T20:53:06.546Z,96993.83
2017-09-12T20:55:34.045Z,96999.50
2017-09-12T20:58:01.720Z,97003.11
2017-09-12T21:00:29.263Z,97000.15
2017-09-12T21:02:56.765Z,96994.80
2017-09-12T21:05:24.839Z,96994.16
2017-09-12T21:07:52.484Z,96994.55
2017-09-12T21:10:20.014Z,96991.72
2017-09-12T21:12:47.521Z,96992.79
2017-09-12T21:15:15.046Z,96991.94
2017-09-12T21:17:43.254Z,96995.62
2017-09-12T21:20:10.748Z,96996.17
2017-09-12T21:22:38.405Z,96991.81
2017-09-12T21:25:05.910Z,96987.70
2017-09-12T21:27:33.434Z,96982.36
2017-09-12T21:30:00.977Z,96977.73
2017-09-12T21:32:28.459Z,96973.84
2017-09-12T21:34:55.956Z,96971.20
2017-09-12T21:37:23.482Z,96971.84
2017-09-12T21:39:50.979Z,96979.54
2017-09-12T21:42:18.473Z,96974.20
2017-09-12T21:44:46.000Z,96974.28
2017-09-12T21:47:13.482Z,96972.40
2017-09-12T21:49:41.034Z,96964.70
2017-09-12T21:52:08.576Z,96961.45
2017-09-12T21:54:36.081Z,96964.11
2017-09-12T21:57:03.586Z,96960.22
2017-09-12T21:59:31.115Z,96954.88
2017-09-12T22:01:58.697Z,96952.56
2017-09-12T22:04:26.206Z,96954.23
2017-09-12T22:06:53.742Z,96953.51
2017-09-12T22:09:21.307Z,96954.45
2017-09-12T22:11:48.854Z,96952.27
2017-09-12T22:14:16.377Z,96948.85
2017-09-12T22:16:43.871Z,96946.79
2017-09-12T22:19:11.424Z,96956.38
2017-09-12T22:21:38.943Z,96958.55
2017-09-12T22:24:06.427Z,96959.11
2017-09-12T22:26:33.929Z,96950.56
2017-09-12T22:29:01.462Z,96952.78
2017-09-12T22:31:28.986Z,96950.05
2017-09-12T22:33:56.465Z,96947.95
2017-09-12T22:36:23.972Z,96941.41
2017-09-12T22:38:51.474Z,96932.48
2017-09-12T22:41:18.985Z,96941.23
2017-09-12T22:43:46.624Z,96950.39
2017-09-12T22:46:14.110Z,96950.81
2017-09-12T22:48:41.647Z,96955.99
2017-09-12T22:51:09.167Z,96954.07
2017-09-12T22:53:36.651Z,96956.81
2017-09-12T22:56:04.142Z,96953.64
2017-09-12T22:58:31.674Z,96955.14
2017-09-12T23:00:59.179Z,96952.11
2017-09-12T23:03:26.681Z,96953.47
2017-09-12T23:05:54.205Z,96938.94
2017-09-12T23:08:21.726Z,96926.11
2017-09-12T23:10:49.215Z,96924.02
2017-09-12T23:13:16.718Z,96931.28
2017-09-12T23:15:44.209Z,96941.38
2017-09-12T23:18:11.714Z,96946.00
2017-09-12T23:20:39.228Z,96943.17
2017-09-12T23:23:06.728Z,96931.80
2017-09-12T23:25:34.218Z,96930.44
2017-09-12T23:28:01.867Z,96926.67
2017-09-12T23:30:29.364Z,96934.76
2017-09-12T23:32:56.848Z,96944.88
2017-09-12T23:35:24.402Z,96936.13
2017-09-12T23:37:51.898Z,96938.05
2017-09-12T23:40:19.447Z,96943.39
2017-09-12T23:42:46.976Z,96943.52
2017-09-12T23:45:14.479Z,96946.67
2017-09-12T23:47:41.953Z,96938.47
2017-09-12T23:50:09.473Z,96932.66
2017-09-12T23:52:36.953Z,96933.64
2017-09-12T23:55:04.487Z,96930.05
2017-09-12T23:57:31.995Z,96932.49
2017-09-12T23:59:59.490Z,96928.17
